Time;durP1;ratioP1;P1;durP2;ratioP2;P2;SDS_P1;SDS_P2;PMS_P1;PMS_P2;Temp;Humidity;BMP_temperature;BMP_pressure;BME280_temperature;BME280_humidity;BME280_pressure;Samples;Min_cycle;Max_cycle;Signal;HPM_P1;HPM_P2
2023/05/06 00:01:06;;;;;;;5.38;2.38;;;12.10;99.90;;;;;;5075317;28;20480;-62
2023/05/06 00:03:33;;;;;;;2.67;1.98;;;12.90;99.90;;;;;;5073817;28;20063;-62
2023/05/06 00:05:58;;;;;;;3.35;1.98;;;12.10;99.90;;;;;;5073864;28;20098;-62
2023/05/06 00:08:25;;;;;;;3.85;2.00;;;12.00;99.90;;;;;;5075289;28;20476;-62
2023/05/06 00:10:50;;;;;;;3.45;1.88;;;12.00;99.90;;;;;;5073718;28;20048;-62
2023/05/06 00:13:16;;;;;;;3.03;1.92;;;12.00;99.90;;;;;;5075265;28;20507;-62
2023/05/06 00:15:41;;;;;;;2.95;1.75;;;12.00;99.90;;;;;;5075041;28;20044;-62
2023/05/06 00:18:07;;;;;;;2.17;1.73;;;12.00;99.90;;;;;;5074884;28;20119;-62
2023/05/06 00:20:33;;;;;;;3.22;2.08;;;12.60;99.90;;;;;;5075101;28;20480;-62
2023/05/06 00:22:58;;;;;;;2.83;2.15;;;12.30;99.90;;;;;;5074675;28;20041;-62
2023/05/06 00:25:24;;;;;;;3.85;2.30;;;11.90;99.90;;;;;;5074935;28;20036;-62
2023/05/06 00:27:51;;;;;;;3.13;1.90;;;11.80;99.90;;;;;;5075002;28;20040;-61
2023/05/06 00:30:17;;;;;;;3.00;1.70;;;11.80;99.90;;;;;;5073673;28;20476;-62
2023/05/06 00:32:42;;;;;;;3.60;2.20;;;11.70;99.90;;;;;;5073325;28;20072;-62
2023/05/06 00:35:08;;;;;;;4.72;2.08;;;11.60;99.90;;;;;;5074828;28;20546;-62
2023/05/06 00:37:34;;;;;;;2.90;1.90;;;11.60;99.90;;;;;;5073484;28;20074;-62
2023/05/06 00:39:59;;;;;;;3.55;1.95;;;11.50;99.90;;;;;;5074455;28;20162;-62
2023/05/06 00:42:25;;;;;;;3.53;2.05;;;11.50;99.90;;;;;;5073380;28;20116;-62
2023/05/06 00:44:51;;;;;;;3.60;2.15;;;11.50;99.90;;;;;;5073304;28;20063;-61
2023/05/06 00:47:17;;;;;;;6.50;2.47;;;11.40;99.90;;;;;;5074500;28;20078;-62
2023/05/06 00:49:45;;;;;;;3.90;2.20;;;11.40;99.90;;;;;;5074517;28;20029;-62
2023/05/06 00:52:11;;;;;;;3.15;2.13;;;11.30;99.90;;;;;;5074224;28;20412;-62
2023/05/06 00:54:37;;;;;;;6.53;2.47;;;11.30;99.90;;;;;;5074378;28;20051;-62
2023/05/06 00:57:03;;;;;;;4.05;2.40;;;11.30;99.90;;;;;;5074364;28;20040;-62
2023/05/06 00:59:28;;;;;;;5.80;2.10;;;11.20;99.90;;;;;;5074315;28;20497;-62
2023/05/06 01:01:54;;;;;;;3.67;2.15;;;11.20;99.90;;;;;;5072625;28;20345;-62
2023/05/06 01:04:22;;;;;;;3.13;2.17;;;11.10;99.90;;;;;;5072776;28;20043;-62
2023/05/06 01:07:25;;;;;;;3.28;2.13;;;12.00;99.90;;;;;;5074203;28;20044;-62
2023/05/06 01:10:00;;;;;;;3.38;2.00;;;11.10;99.90;;;;;;5073470;28;20044;-62
2023/05/06 01:12:32;;;;;;;2.35;1.65;;;12.30;99.90;;;;;;5072813;28;20048;-62
2023/05/06 01:15:07;;;;;;;3.90;2.45;;;11.10;99.90;;;;;;5074004;28;20040;-62
2023/05/06 01:17:37;;;;;;;3.33;2.58;;;11.20;99.90;;;;;;5073562;28;20061;-62
2023/05/06 01:20:05;;;;;;;2.72;1.90;;;11.30;99.90;;;;;;5073901;28;20116;-62
2023/05/06 01:22:33;;;;;;;3.67;2.50;;;11.10;99.90;;;;;;5073517;28;20493;-62
2023/05/06 01:24:58;;;;;;;4.20;2.70;;;11.10;99.90;;;;;;5072328;28;20056;-62
2023/05/06 01:27:24;;;;;;;5.90;2.67;;;11.10;99.90;;;;;;5073425;28;20472;-62
2023/05/06 01:29:50;;;;;;;4.63;2.88;;;11.30;99.90;;;;;;5073691;28;20032;-62
2023/05/06 01:32:20;;;;;;;4.88;2.70;;;12.10;99.90;;;;;;5073366;28;20507;-62
2023/05/06 01:34:57;;;;;;;5.05;3.00;;;11.00;99.90;;;;;;5073701;28;20045;-62
2023/05/06 01:37:33;;;;;;;4.20;2.25;;;12.30;99.90;;;;;;5073554;28;20036;-62
2023/05/06 01:40:01;;;;;;;5.22;2.85;;;11.20;99.90;;;;;;5073587;28;20047;-62
2023/05/06 01:42:29;;;;;;;3.78;2.38;;;11.20;99.90;;;;;;5073384;28;20076;-63
2023/05/06 01:44:58;;;;;;;3.47;2.20;;;11.20;99.90;;;;;;5073445;28;20047;-62
2023/05/06 01:47:24;;;;;;;3.92;2.60;;;11.20;99.90;;;;;;5071908;28;20055;-62
2023/05/06 01:49:50;;;;;;;5.13;2.65;;;11.30;99.90;;;;;;5073463;28;20116;-62
2023/05/06 01:52:16;;;;;;;4.35;2.60;;;11.30;99.90;;;;;;5073009;28;20032;-62
2023/05/06 01:54:41;;;;;;;4.00;2.78;;;11.30;99.90;;;;;;5073005;28;20055;-62
2023/05/06 01:57:07;;;;;;;3.63;2.35;;;11.40;99.90;;;;;;5072171;28;20118;-62
2023/05/06 01:59:32;;;;;;;4.03;2.75;;;11.40;99.90;;;;;;5073009;28;20473;-62
2023/05/06 02:01:58;;;;;;;4.10;2.80;;;11.40;99.90;;;;;;5089727;22;20048;-62
2023/05/06 02:04:24;;;;;;;4.55;2.70;;;13.50;99.90;;;;;;5031813;28;20167;-61
2023/05/06 02:06:49;;;;;;;4.50;3.00;;;11.40;99.90;;;;;;5033534;28;20124;-61
2023/05/06 02:09:15;;;;;;;4.45;2.92;;;11.30;99.90;;;;;;5031639;28;20046;-61
2023/05/06 02:11:41;;;;;;;5.00;2.92;;;12.00;99.90;;;;;;5031640;28;20048;-61
2023/05/06 02:14:06;;;;;;;4.50;3.03;;;11.30;99.90;;;;;;5033253;28;20053;-61
2023/05/06 02:16:32;;;;;;;3.80;2.65;;;11.30;99.90;;;;;;5033157;28;20457;-61
2023/05/06 02:18:57;;;;;;;4.70;3.20;;;11.30;99.90;;;;;;5032782;28;20095;-61
2023/05/06 02:21:23;;;;;;;4.75;2.88;;;11.20;99.90;;;;;;5032926;28;20112;-61
2023/05/06 02:23:49;;;;;;;4.40;3.05;;;11.20;99.90;;;;;;5033067;28;20038;-61
2023/05/06 02:26:15;;;;;;;4.85;3.35;;;12.70;99.90;;;;;;5031537;28;20037;-62
2023/05/06 02:28:40;;;;;;;6.07;3.00;;;11.10;99.90;;;;;;5032987;28;20125;-61
2023/05/06 02:31:06;;;;;;;4.03;3.13;;;11.10;99.90;;;;;;5033067;28;20080;-61
2023/05/06 02:33:32;;;;;;;5.28;3.40;;;11.10;99.90;;;;;;5032990;28;20049;-61
2023/05/06 02:35:57;;;;;;;4.80;3.05;;;11.00;99.90;;;;;;5032928;28;20069;-61
2023/05/06 02:38:23;;;;;;;5.82;3.30;;;11.00;99.90;;;;;;5032885;28;20491;-61
2023/05/06 02:40:48;;;;;;;5.65;3.35;;;10.90;99.90;;;;;;5032891;28;20116;-61
2023/05/06 02:43:14;;;;;;;4.85;2.83;;;10.90;99.90;;;;;;5032731;28;20100;-61
2023/05/06 02:45:40;;;;;;;5.85;3.30;;;10.90;99.90;;;;;;5032826;28;20420;-61
2023/05/06 02:48:05;;;;;;;6.10;3.38;;;10.80;99.90;;;;;;5032912;28;20037;-61
2023/05/06 02:50:31;;;;;;;7.63;3.10;;;10.80;99.90;;;;;;5032770;28;20037;-61
2023/05/06 02:52:56;;;;;;;5.60;3.08;;;10.70;99.90;;;;;;5031257;28;20045;-61
2023/05/06 02:55:22;;;;;;;5.25;3.00;;;10.70;99.90;;;;;;5032744;28;20048;-61
2023/05/06 02:57:48;;;;;;;4.55;2.75;;;10.70;99.90;;;;;;5032734;28;20067;-61
2023/05/06 03:00:14;;;;;;;5.72;2.92;;;10.60;99.90;;;;;;5032697;28;20033;-61
2023/05/06 03:02:40;;;;;;;5.53;2.78;;;10.60;99.90;;;;;;5030944;28;20132;-61
2023/05/06 03:05:06;;;;;;;5.55;3.15;;;10.50;99.90;;;;;;5032722;28;20129;-61
2023/05/06 03:07:33;;;;;;;4.60;2.72;;;10.50;99.90;;;;;;5032706;28;20116;-61
2023/05/06 03:09:59;;;;;;;4.18;2.10;;;10.50;99.90;;;;;;5032717;28;20125;-61
2023/05/06 03:12:25;;;;;;;4.40;2.67;;;10.40;99.90;;;;;;5032568;28;20442;-61
2023/05/06 03:14:51;;;;;;;6.00;3.22;;;10.40;99.90;;;;;;5031355;28;20423;-61
2023/05/06 03:17:16;;;;;;;6.03;3.50;;;10.30;99.90;;;;;;5032554;28;20099;-61
2023/05/06 03:19:42;;;;;;;4.55;2.72;;;10.30;99.90;;;;;;5031302;28;20520;-61
2023/05/06 03:22:08;;;;;;;3.92;2.42;;;10.20;99.90;;;;;;5030891;28;20120;-61
2023/05/06 03:24:33;;;;;;;3.40;2.13;;;10.20;99.90;;;;;;5032221;28;20045;-61
2023/05/06 03:27:00;;;;;;;2.83;1.80;;;10.10;99.90;;;;;;5032217;28;20033;-61
2023/05/06 03:29:26;;;;;;;4.68;2.38;;;10.10;99.90;;;;;;5014832;28;20056;-61
2023/05/06 03:31:54;;;;;;;3.47;2.35;;;10.00;99.90;;;;;;5033971;28;20045;-61
2023/05/06 03:34:20;;;;;;;2.88;1.85;;;10.00;99.90;;;;;;5035691;28;20038;-61
2023/05/06 03:36:46;;;;;;;3.25;2.13;;;9.90;99.90;;;;;;5035807;28;20413;-61
2023/05/06 03:39:11;;;;;;;5.40;1.58;;;9.90;99.90;;;;;;5035645;28;20477;-61
2023/05/06 03:41:37;;;;;;;2.45;1.70;;;9.80;99.90;;;;;;5035606;28;20045;-62
2023/05/06 03:44:03;;;;;;;2.13;1.48;;;9.80;99.90;;;;;;5034605;28;20524;-62
2023/05/06 03:46:28;;;;;;;3.28;2.10;;;9.70;99.90;;;;;;5035773;28;20040;-61
2023/05/06 03:48:54;;;;;;;3.22;1.98;;;9.70;99.90;;;;;;5035746;28;20037;-61
2023/05/06 03:51:20;;;;;;;4.13;2.15;;;9.60;99.90;;;;;;5034186;28;20480;-62
2023/05/06 03:53:45;;;;;;;3.47;1.88;;;9.60;99.90;;;;;;5035674;28;20476;-61
2023/05/06 03:56:11;;;;;;;13.45;2.10;;;10.80;99.90;;;;;;5034157;28;20049;-61
2023/05/06 03:58:37;;;;;;;2.67;1.65;;;9.60;99.90;;;;;;5035332;28;20123;-61
2023/05/06 04:01:03;;;;;;;5.07;1.60;;;9.50;99.90;;;;;;5035467;28;20083;-61
2023/05/06 04:03:29;;;;;;;3.95;2.10;;;9.50;99.90;;;;;;5033739;28;20053;-62
2023/05/06 04:05:54;;;;;;;3.05;1.95;;;9.50;99.90;;;;;;5034160;28;20491;-61
2023/05/06 04:08:20;;;;;;;2.60;1.42;;;9.50;99.90;;;;;;5035356;28;20095;-61
2023/05/06 04:10:46;;;;;;;6.05;2.17;;;9.50;99.90;;;;;;5033869;28;20404;-61
2023/05/06 04:13:11;;;;;;;2.78;1.70;;;9.40;99.90;;;;;;5035112;28;20490;-61
2023/05/06 04:15:37;;;;;;;1.65;1.25;;;9.40;99.90;;;;;;5034997;28;20064;-62
2023/05/06 04:18:04;;;;;;;1.85;1.27;;;9.40;99.90;;;;;;5034967;28;20045;-61
2023/05/06 04:20:30;;;;;;;2.42;1.48;;;9.40;99.90;;;;;;5034826;28;20044;-61
2023/05/06 04:22:56;;;;;;;1.77;1.30;;;9.30;99.90;;;;;;5035081;28;20038;-61
2023/05/06 04:25:21;;;;;;;1.50;1.33;;;9.30;99.90;;;;;;5033863;28;20037;-61
2023/05/06 04:27:47;;;;;;;1.27;1.02;;;9.30;99.90;;;;;;5034729;28;20042;-61
2023/05/06 04:30:13;;;;;;;1.40;1.30;;;9.30;99.90;;;;;;5035004;28;20436;-61
2023/05/06 04:32:39;;;;;;;2.60;1.65;;;9.30;99.90;;;;;;5034879;28;20129;-61
2023/05/06 04:35:05;;;;;;;2.15;1.50;;;9.30;99.90;;;;;;5034869;28;20041;-61
2023/05/06 04:37:31;;;;;;;4.85;1.75;;;9.40;99.90;;;;;;5034820;28;20033;-61
2023/05/06 04:39:56;;;;;;;2.22;1.58;;;9.30;99.90;;;;;;5034530;28;20486;-61
2023/05/06 04:42:22;;;;;;;1.65;1.17;;;9.30;99.90;;;;;;5034998;28;20048;-64
2023/05/06 04:44:48;;;;;;;1.35;1.20;;;9.30;99.90;;;;;;5034387;28;20034;-65
2023/05/06 04:47:14;;;;;;;1.98;1.38;;;9.30;99.90;;;;;;5033126;28;20083;-64
2023/05/06 04:49:41;;;;;;;1.88;1.40;;;9.30;99.90;;;;;;5034557;28;20449;-65
2023/05/06 04:52:06;;;;;;;2.17;1.52;;;9.30;99.90;;;;;;5034595;28;20044;-65
2023/05/06 04:54:32;;;;;;;1.90;1.40;;;9.30;99.90;;;;;;5034541;28;20041;-64
2023/05/06 04:56:57;;;;;;;1.45;1.20;;;9.30;99.90;;;;;;5034442;28;20064;-64
2023/05/06 04:59:23;;;;;;;2.17;1.52;;;9.30;99.90;;;;;;5034428;28;20385;-64
2023/05/06 05:01:48;;;;;;;1.83;1.23;;;9.40;99.90;;;;;;5033933;28;20124;-64
2023/05/06 05:04:14;;;;;;;2.35;1.60;;;9.40;99.90;;;;;;5033941;28;20066;-65
2023/05/06 05:06:40;;;;;;;1.77;1.50;;;9.40;99.90;;;;;;5034355;28;20029;-65
2023/05/06 05:09:05;;;;;;;3.33;1.85;;;9.50;99.90;;;;;;5032994;28;20049;-66
2023/05/06 05:11:31;;;;;;;2.33;1.67;;;9.60;99.90;;;;;;5033870;28;20077;-65
2023/05/06 05:13:56;;;;;;;2.47;1.70;;;9.70;99.90;;;;;;5034162;28;20045;-65
2023/05/06 05:16:22;;;;;;;3.13;1.98;;;9.80;99.90;;;;;;5032829;28;20079;-65
2023/05/06 05:18:48;;;;;;;2.92;1.98;;;9.80;99.90;;;;;;5034008;28;20041;-65
2023/05/06 05:21:14;;;;;;;2.58;2.00;;;9.90;99.90;;;;;;5033984;28;20044;-65
2023/05/06 05:23:40;;;;;;;2.40;1.98;;;10.00;99.90;;;;;;5033592;28;20081;-64
2023/05/06 05:26:05;;;;;;;3.25;1.95;;;10.00;99.90;;;;;;5033651;28;20031;-65
2023/05/06 05:28:31;;;;;;;3.17;1.88;;;10.10;99.90;;;;;;5033823;28;20041;-65
2023/05/06 05:31:05;;;;;;;2.95;1.90;;;10.20;99.90;;;;;;5033855;28;20405;-65
2023/05/06 05:33:31;;;;;;;3.13;2.25;;;10.30;99.90;;;;;;5033736;28;20128;-64
2023/05/06 05:35:57;;;;;;;3.55;2.10;;;10.40;99.90;;;;;;5033457;28;20466;-65
2023/05/06 05:38:23;;;;;;;2.65;2.00;;;10.50;99.90;;;;;;5033353;28;20087;-65
2023/05/06 05:40:48;;;;;;;2.90;2.20;;;10.60;99.90;;;;;;5033655;28;20045;-65
2023/05/06 05:43:14;;;;;;;2.97;2.15;;;10.60;99.90;;;;;;5033473;28;20550;-65
2023/05/06 05:45:40;;;;;;;5.30;2.33;;;10.70;99.90;;;;;;5033586;28;20481;-65
2023/05/06 05:48:05;;;;;;;3.95;2.47;;;10.70;99.90;;;;;;5033580;28;20033;-65
2023/05/06 05:50:31;;;;;;;2.92;2.08;;;10.80;99.90;;;;;;5033461;28;20044;-65
2023/05/06 05:52:56;;;;;;;3.08;2.38;;;10.80;99.90;;;;;;5033486;28;20048;-65
2023/05/06 05:55:22;;;;;;;4.38;2.40;;;10.90;99.90;;;;;;5032817;28;20120;-65
2023/05/06 05:57:47;;;;;;;2.70;2.10;;;10.90;99.90;;;;;;5033380;28;20477;-65
2023/05/06 06:00:13;;;;;;;3.75;2.50;;;10.90;99.90;;;;;;5033400;28;20038;-65
2023/05/06 06:02:40;;;;;;;4.70;2.63;;;10.90;99.90;;;;;;5033080;28;20123;-64
2023/05/06 06:05:06;;;;;;;4.85;2.97;;;10.90;99.90;;;;;;5033381;28;20041;-65
2023/05/06 06:07:31;;;;;;;3.40;2.55;;;10.90;99.90;;;;;;5033209;28;20037;-65
2023/05/06 06:09:57;;;;;;;4.93;2.80;;;10.90;99.90;;;;;;5032878;28;20112;-65
2023/05/06 06:12:23;;;;;;;5.32;3.25;;;10.90;99.90;;;;;;5032936;28;20076;-65
2023/05/06 06:14:49;;;;;;;5.95;3.28;;;10.90;99.90;;;;;;5033139;28;20033;-65
2023/05/06 06:17:15;;;;;;;5.18;3.42;;;10.90;99.90;;;;;;5033078;28;20117;-64
2023/05/06 06:19:40;;;;;;;5.05;3.40;;;10.90;99.90;;;;;;5032886;28;20049;-65
2023/05/06 06:22:06;;;;;;;5.47;3.75;;;10.90;99.90;;;;;;5032980;28;20045;-65
2023/05/06 06:24:35;;;;;;;5.97;3.50;;;11.00;99.90;;;;;;5032998;28;20504;-65
2023/05/06 06:27:01;;;;;;;5.63;3.22;;;11.00;99.90;;;;;;5033032;28;20050;-65
2023/05/06 06:29:26;;;;;;;9.80;4.30;;;11.20;99.90;;;;;;5032667;28;20124;-65
2023/05/06 06:31:54;;;;;;;7.32;3.65;;;11.90;99.90;;;;;;5032900;28;20175;-64
2023/05/06 06:34:20;;;;;;;8.18;3.65;;;11.60;99.90;;;;;;5032536;28;20049;-64
2023/05/06 06:36:46;;;;;;;7.50;3.95;;;11.80;99.90;;;;;;5032637;28;20046;-65
2023/05/06 06:39:11;;;;;;;8.02;3.85;;;12.10;99.90;;;;;;5032896;28;20033;-65
2023/05/06 06:41:37;;;;;;;8.95;4.63;;;12.30;99.90;;;;;;5033048;28;20076;-62
2023/05/06 06:44:03;;;;;;;7.50;4.55;;;12.60;99.90;;;;;;5032951;28;20045;-61
2023/05/06 06:46:29;;;;;;;9.43;5.03;;;12.90;99.90;;;;;;5032621;28;20033;-61
2023/05/06 06:48:54;;;;;;;7.80;4.78;;;12.90;99.90;;;;;;5032478;28;20091;-61
2023/05/06 06:51:20;;;;;;;9.00;4.72;;;13.30;99.90;;;;;;5032786;28;20046;-60
2023/05/06 06:53:47;;;;;;;9.35;4.97;;;13.40;99.90;;;;;;5031257;28;20041;-61
2023/05/06 06:56:14;;;;;;;9.25;4.40;;;13.40;99.90;;;;;;5032800;28;20044;-61
2023/05/06 06:58:40;;;;;;;11.55;4.93;;;13.40;99.90;;;;;;5032667;28;20038;-61
2023/05/06 07:01:06;;;;;;;8.23;5.18;;;13.40;99.90;;;;;;5032641;28;20029;-60
2023/05/06 07:03:32;;;;;;;9.93;5.07;;;13.40;99.90;;;;;;5031113;28;20524;-61
2023/05/06 07:05:58;;;;;;;9.15;5.20;;;13.40;99.90;;;;;;5032802;28;20404;-60
2023/05/06 07:08:23;;;;;;;10.35;5.60;;;13.30;99.90;;;;;;5036643;28;20061;-60
2023/05/06 07:10:49;;;;;;;9.07;4.65;;;13.40;99.90;;;;;;5034916;28;20409;-60
2023/05/06 07:13:15;;;;;;;8.00;4.57;;;13.40;99.90;;;;;;5035134;28;20056;-60
2023/05/06 07:15:41;;;;;;;8.80;4.47;;;13.30;99.90;;;;;;5036348;28;20048;-60
2023/05/06 07:18:06;;;;;;;10.63;4.50;;;13.40;99.90;;;;;;5036319;28;20041;-61
2023/05/06 07:20:32;;;;;;;10.38;5.50;;;13.40;99.90;;;;;;5036287;28;20481;-61
2023/05/06 07:22:57;;;;;;;8.90;4.70;;;13.40;99.90;;;;;;5035807;28;20041;-61
2023/05/06 07:25:23;;;;;;;8.30;4.90;;;13.60;99.90;;;;;;5036038;28;20095;-61
2023/05/06 07:27:49;;;;;;;6.57;4.50;;;13.60;99.90;;;;;;5036019;28;20034;-61
2023/05/06 07:30:15;;;;;;;7.65;4.88;;;13.70;99.90;;;;;;5034602;28;20091;-61
2023/05/06 07:32:42;;;;;;;9.38;6.78;;;14.20;99.90;;;;;;5035883;28;20057;-61
2023/05/06 07:35:08;;;;;;;8.77;5.05;;;14.00;99.90;;;;;;5036005;28;20095;-61
2023/05/06 07:37:33;;;;;;;9.55;5.53;;;14.20;99.90;;;;;;5036003;28;20051;-61
2023/05/06 07:39:59;;;;;;;7.45;4.45;;;14.20;99.90;;;;;;5035608;28;20045;-61
2023/05/06 07:42:25;;;;;;;11.25;5.28;;;14.30;99.90;;;;;;5035748;28;20077;-62
2023/05/06 07:44:50;;;;;;;11.65;4.78;;;14.80;99.90;;;;;;5035460;28;20096;-61
2023/05/06 07:47:25;;;;;;;10.02;4.50;;;14.40;99.90;;;;;;5034339;28;20050;-62
2023/05/06 07:49:51;;;;;;;7.65;5.03;;;15.30;99.90;;;;;;5035805;28;20393;-61
2023/05/06 07:52:16;;;;;;;7.22;4.50;;;14.40;99.90;;;;;;5035670;28;20048;-61
2023/05/06 07:54:42;;;;;;;9.07;4.90;;;14.50;99.90;;;;;;5035527;28;20520;-61
2023/05/06 07:57:08;;;;;;;8.27;4.97;;;14.30;99.90;;;;;;5035472;28;20049;-60
2023/05/06 07:59:33;;;;;;;9.45;4.88;;;14.40;99.90;;;;;;5035458;28;20072;-61
2023/05/06 08:01:59;;;;;;;10.30;5.00;;;15.50;99.90;;;;;;5033572;28;20049;-61
2023/05/06 08:04:24;;;;;;;6.95;4.30;;;15.00;99.90;;;;;;5035212;28;20048;-67
2023/05/06 08:06:51;;;;;;;6.32;4.13;;;14.70;99.90;;;;;;5035041;28;20477;-61
2023/05/06 08:09:16;;;;;;;7.90;5.20;;;14.70;99.90;;;;;;5035055;28;20544;-61
2023/05/06 08:11:42;;;;;;;7.88;4.95;;;14.70;99.90;;;;;;5035300;28;20072;-62
2023/05/06 08:14:07;;;;;;;10.68;4.80;;;15.00;99.90;;;;;;5035296;28;20473;-63
2023/05/06 08:16:34;;;;;;;7.45;4.47;;;15.10;99.90;;;;;;5034663;28;20041;-63
2023/05/06 08:18:59;;;;;;;9.95;5.80;;;15.20;99.90;;;;;;5033511;28;20508;-60
2023/05/06 08:21:25;;;;;;;7.30;5.13;;;15.30;99.90;;;;;;5034930;28;20036;-62
2023/05/06 08:23:51;;;;;;;11.43;6.20;;;15.40;99.90;;;;;;5033430;28;20049;-62
2023/05/06 08:26:17;;;;;;;10.88;6.05;;;15.40;99.90;;;;;;5035157;28;20046;-61
2023/05/06 08:28:42;;;;;;;8.90;5.47;;;15.50;99.90;;;;;;5035043;28;20060;-61
2023/05/06 08:31:09;;;;;;;9.85;5.28;;;15.60;99.90;;;;;;5034833;28;20328;-61
2023/05/06 08:33:34;;;;;;;10.18;6.05;;;15.70;99.90;;;;;;5033292;28;20049;-61
2023/05/06 08:36:00;;;;;;;9.13;5.30;;;15.70;99.90;;;;;;5034800;28;20046;-62
2023/05/06 08:38:25;;;;;;;10.05;5.85;;;15.70;99.90;;;;;;5034714;28;20038;-62
2023/05/06 08:40:53;;;;;;;10.35;5.65;;;15.90;99.90;;;;;;5034626;28;20048;-62
2023/05/06 08:43:20;;;;;;;7.80;5.50;;;16.60;99.90;;;;;;5032999;28;20033;-62
2023/05/06 08:45:45;;;;;;;9.32;5.15;;;16.00;99.90;;;;;;5034646;28;20124;-62
2023/05/06 08:48:11;;;;;;;11.43;5.85;;;16.10;99.90;;;;;;5034588;28;20137;-67
2023/05/06 08:50:42;;;;;;;9.40;5.50;;;16.10;99.90;;;;;;5034519;28;20053;-62
2023/05/06 08:53:10;;;;;;;9.48;5.15;;;16.30;99.90;;;;;;5033017;28;20080;-62
2023/05/06 08:55:37;;;;;;;10.10;5.05;;;16.30;99.90;;;;;;5033038;28;20045;-62
2023/05/06 08:58:05;;;;;;;9.68;5.10;;;16.30;99.90;;;;;;5034551;28;20048;-62
2023/05/06 09:00:32;;;;;;;7.47;4.45;;;16.40;99.90;;;;;;5034440;28;20052;-62
2023/05/06 09:02:57;;;;;;;8.13;4.60;;;16.40;99.90;;;;;;5034101;28;20136;-62
2023/05/06 09:05:23;;;;;;;9.57;5.82;;;16.60;99.90;;;;;;5034369;28;20080;-62
2023/05/06 09:07:48;;;;;;;11.30;5.82;;;16.60;99.90;;;;;;5032839;28;20035;-62
2023/05/06 09:10:16;;;;;;;9.20;5.07;;;17.80;99.90;;;;;;5034031;28;20033;-61
2023/05/06 09:12:42;;;;;;;9.20;4.93;;;17.00;99.90;;;;;;5034175;28;20530;-62
2023/05/06 09:15:08;;;;;;;8.82;5.20;;;16.90;99.90;;;;;;5034216;28;20045;-62
2023/05/06 09:17:35;;;;;;;9.52;4.25;;;16.90;99.90;;;;;;5033773;28;20124;-62
2023/05/06 09:20:01;;;;;;;8.82;4.95;;;16.80;99.90;;;;;;5034178;28;20045;-62
2023/05/06 09:22:28;;;;;;;7.63;5.15;;;17.50;99.90;;;;;;5032634;28;20489;-62
2023/05/06 09:24:55;;;;;;;8.02;4.88;;;16.70;99.90;;;;;;5034052;28;20481;-62
2023/05/06 09:27:23;;;;;;;7.55;4.05;;;16.70;99.90;;;;;;5033603;28;20124;-62
2023/05/06 09:30:04;;;;;;;7.00;3.95;;;16.60;99.90;;;;;;5033066;28;20077;-63
2023/05/06 09:32:30;;;;;;;8.73;4.30;;;16.60;99.90;;;;;;5033840;28;20051;-61
2023/05/06 09:34:56;;;;;;;6.18;3.45;;;16.50;99.90;;;;;;5033709;28;20419;-62
2023/05/06 09:37:23;;;;;;;8.88;4.30;;;17.30;99.90;;;;;;5033437;28;20121;-62
2023/05/06 09:39:53;;;;;;;8.82;4.70;;;17.10;99.90;;;;;;5033754;28;20033;-62
2023/05/06 09:42:21;;;;;;;9.88;4.85;;;16.90;99.90;;;;;;5032237;28;20041;-61
2023/05/06 09:44:47;;;;;;;12.50;4.70;;;17.70;99.90;;;;;;5033515;28;20499;-61
2023/05/06 09:47:13;;;;;;;7.32;4.22;;;17.80;99.90;;;;;;5033507;28;20037;-62
2023/05/06 09:49:39;;;;;;;6.88;4.45;;;17.50;99.90;;;;;;5033458;28;20431;-62
2023/05/06 09:52:06;;;;;;;6.75;4.15;;;17.70;99.90;;;;;;5033485;28;20049;-61
2023/05/06 09:54:32;;;;;;;7.28;4.85;;;17.90;99.90;;;;;;5033286;28;20077;-61
2023/05/06 09:56:58;;;;;;;8.30;5.07;;;17.90;99.90;;;;;;5033394;28;20045;-62
2023/05/06 09:59:25;;;;;;;7.03;5.05;;;17.90;99.90;;;;;;5033478;28;20428;-62
2023/05/06 10:01:52;;;;;;;7.90;5.10;;;18.40;99.90;;;;;;5033025;28;20046;-62
2023/05/06 10:04:22;;;;;;;7.18;5.20;;;17.90;99.90;;;;;;5032868;28;20071;-63
2023/05/06 10:06:50;;;;;;;10.13;5.25;;;17.90;99.90;;;;;;5032850;28;20048;-62
2023/05/06 10:09:17;;;;;;;8.07;4.43;;;18.70;99.90;;;;;;5032950;28;20076;-62
2023/05/06 10:11:44;;;;;;;8.60;4.97;;;17.70;99.90;;;;;;5033193;28;20045;-62
2023/05/06 10:14:10;;;;;;;11.45;5.43;;;17.60;99.90;;;;;;5033175;28;20045;-62
2023/05/06 10:16:36;;;;;;;7.95;5.25;;;17.60;99.90;;;;;;5033174;28;20115;-62
2023/05/06 10:19:05;;;;;;;11.05;5.03;;;18.50;99.90;;;;;;5033149;28;20400;-62
2023/05/06 10:21:34;;;;;;;11.60;5.72;;;17.80;99.90;;;;;;5032835;28;20099;-61
2023/05/06 10:24:07;;;;;;;7.47;5.07;;;17.80;99.90;;;;;;5033112;28;20499;-61
2023/05/06 10:26:36;;;;;;;8.75;4.97;;;17.70;99.90;;;;;;5033023;28;20033;-61
2023/05/06 10:29:03;;;;;;;8.80;5.53;;;17.70;99.90;;;;;;5032983;28;20069;-61
2023/05/06 10:31:29;;;;;;;8.20;4.63;;;17.70;99.90;;;;;;5032970;28;20048;-62
2023/05/06 10:33:59;;;;;;;10.95;5.43;;;17.70;99.90;;;;;;5033272;28;20080;-62
2023/05/06 10:36:27;;;;;;;12.03;5.63;;;18.40;99.90;;;;;;5032942;28;20038;-62
2023/05/06 10:38:55;;;;;;;8.65;4.82;;;17.60;30.30;;;;;;5032903;28;20029;-63
2023/05/06 10:41:22;;;;;;;9.30;5.15;;;18.00;19.20;;;;;;5033949;28;20447;-62
2023/05/06 10:43:55;;;;;;;11.45;5.00;;;17.60;6.50;;;;;;5036630;28;20049;-61
2023/05/06 10:46:23;;;;;;;8.27;4.80;;;17.40;27.80;;;;;;5036966;28;20400;-62
2023/05/06 10:49:05;;;;;;;11.15;5.57;;;17.70;35.60;;;;;;5036755;28;20444;-64
2023/05/06 10:51:37;;;;;;;11.35;5.30;;;17.40;13.10;;;;;;5036570;28;20053;-62
2023/05/06 10:54:07;;;;;;;8.18;4.30;;;17.80;2.10;;;;;;5036482;28;20120;-63
2023/05/06 10:56:49;;;;;;;8.40;4.18;;;17.40;3.20;;;;;;5036245;28;20044;-62
2023/05/06 10:59:20;;;;;;;6.25;4.00;;;17.40;4.90;;;;;;5036444;28;20038;-61
2023/05/06 11:01:53;;;;;;;;;;;17.50;7.10;;;;;;5019083;28;20037;-60
2023/05/06 11:04:19;;;;;;;7.15;4.25;;;17.60;1.00;;;;;;5034603;28;19921;-61
2023/05/06 11:06:45;;;;;;;8.43;5.18;;;17.70;1.00;;;;;;5035916;28;20095;-61
2023/05/06 11:09:16;;;;;;;8.38;4.60;;;17.70;1.00;;;;;;5035968;28;20044;-61
2023/05/06 11:11:57;;;;;;;9.63;4.82;;;17.80;1.00;;;;;;5036094;28;20044;-60
2023/05/06 11:14:26;;;;;;;12.30;5.22;;;18.00;1.00;;;;;;5035813;28;20037;-61
2023/05/06 11:16:55;;;;;;;11.55;5.85;;;18.00;1.00;;;;;;5035831;28;20068;-64
2023/05/06 11:19:26;;;;;;;12.23;5.47;;;18.20;1.00;;;;;;5017874;28;20041;-62
2023/05/06 11:21:54;;;;;;;10.55;6.60;;;18.50;1.00;;;;;;5035782;28;20056;-63
2023/05/06 11:24:23;;;;;;;15.82;7.78;;;18.60;45.50;;;;;;5035690;28;20042;-62
2023/05/06 11:26:49;;;;;;;12.63;7.10;;;18.40;1.00;;;;;;5035877;28;20071;-62
2023/05/06 11:29:16;;;;;;;9.65;6.07;;;18.30;99.90;;;;;;5035813;28;20485;-63
2023/05/06 11:31:43;;;;;;;13.30;6.70;;;18.20;99.90;;;;;;5035793;28;20052;-62
2023/05/06 11:34:11;;;;;;;14.57;5.50;;;18.20;99.90;;;;;;5035930;28;20029;-62
2023/05/06 11:36:51;;;;;;;10.55;5.47;;;18.20;91.10;;;;;;5034392;28;20045;-62
2023/05/06 11:39:17;;;;;;;7.80;5.22;;;18.20;99.90;;;;;;5035912;28;20483;-62
2023/05/06 11:41:42;;;;;;;11.50;5.72;;;18.20;1.00;;;;;;5035679;28;20045;-62
2023/05/06 11:44:10;;;;;;;12.00;5.53;;;18.80;99.90;;;;;;5035759;28;20404;-62
2023/05/06 11:46:36;;;;;;;10.93;5.93;;;18.80;99.90;;;;;;5017756;28;20399;-61
2023/05/06 11:49:02;;;;;;;10.48;5.55;;;18.30;99.90;;;;;;5035726;28;20116;-62
2023/05/06 11:51:27;;;;;;;10.05;5.55;;;18.20;99.90;;;;;;5035196;28;20077;-62
2023/05/06 11:54:06;;;;;;;9.30;5.60;;;18.20;62.70;;;;;;5034901;28;20042;-62
2023/05/06 11:56:46;;;;;;;9.15;6.05;;;18.20;1.00;;;;;;5035633;28;20133;-61
2023/05/06 11:59:12;;;;;;;9.25;5.57;;;18.20;99.90;;;;;;5035632;28;20057;-61
2023/05/06 12:01:41;;;;;;;8.85;5.68;;;18.20;99.90;;;;;;5035354;28;20369;-61
2023/05/06 12:04:06;;;;;;;7.13;4.53;;;18.20;28.40;;;;;;5035086;28;20555;-61
2023/05/06 12:06:36;;;;;;;7.10;4.70;;;18.40;99.90;;;;;;5034930;28;20034;-61
2023/05/06 12:09:05;;;;;;;9.98;5.35;;;18.40;99.90;;;;;;5034037;28;20110;-62
2023/05/06 12:11:33;;;;;;;7.22;5.25;;;18.60;99.90;;;;;;5035185;28;20045;-61
2023/05/06 12:14:00;;;;;;;7.65;5.22;;;18.70;99.90;;;;;;5035000;28;20160;-62
2023/05/06 12:16:26;;;;;;;5.75;4.30;;;19.00;99.90;;;;;;5035060;28;20041;-62
2023/05/06 12:18:53;;;;;;;6.20;4.55;;;19.30;99.90;;;;;;5034848;28;20370;-61
2023/05/06 12:21:25;;;;;;;7.38;4.50;;;19.40;99.90;;;;;;5034922;28;20049;-62
2023/05/06 12:23:56;;;;;;;10.68;4.30;;;19.60;99.90;;;;;;5034988;28;20131;-61
2023/05/06 12:26:22;;;;;;;7.65;4.57;;;19.90;99.90;;;;;;5034962;28;20092;-63
2023/05/06 12:29:11;;;;;;;6.38;4.57;;;20.10;1.00;;;;;;5034762;28;20440;-63
2023/05/06 12:31:37;;;;;;;6.25;3.83;;;20.00;1.00;;;;;;5034608;28;20041;-62
2023/05/06 12:34:03;;;;;;;9.50;4.60;;;20.40;99.90;;;;;;5034801;28;20044;-62
2023/05/06 12:36:31;;;;;;;11.02;5.03;;;20.30;30.90;;;;;;5034650;28;20137;-63
2023/05/06 12:39:00;;;;;;;8.65;4.50;;;20.40;1.00;;;;;;5034452;28;20052;-63
2023/05/06 12:41:41;;;;;;;7.78;4.68;;;20.40;70.10;;;;;;5034881;28;20042;-64
2023/05/06 12:44:25;;;;;;;;;;;20.40;99.90;;;;;;5035121;28;20037;-66
2023/05/06 12:46:53;;;;;;;7.70;4.70;;;20.60;99.90;;;;;;5034885;28;19966;-66